Observation data for Amherst on 12/07/2019      Previous  Date       Current Mesonet Observations  Soil Data  Daily Summary Page  Observations in Plain Language
KAMH 070600Z 17007KT 04/01 A3033 RMK A01 T00380005  RH  080%=      5-min Rain = 0
KAMH 070605Z 17007KT 04/00 A3032 RMK A01 T00380004  RH  080%=      5-min Rain = 0
KAMH 070610Z 17006KT 04/00 A3032 RMK A01 T00370004  RH  080%=      5-min Rain = 0
KAMH 070615Z 16005KT 03/00 A3032 RMK A01 T00330001  RH  080%=      5-min Rain = 0
KAMH 070620Z 17004KT 03/M00 A3032 RMK A01 T00281003  RH  081%=      5-min Rain = 0
KAMH 070625Z 17003KT 03/M00 A3032 RMK A01 T00251003  RH  083%=      5-min Rain = 0
KAMH 070630Z 16003KT 02/M00 A3032 RMK A01 T00231003  RH  084%=      5-min Rain = 0
KAMH 070635Z 16003KT 02/M00 A3032 RMK A01 T00211004  RH  084%=      5-min Rain = 0
KAMH 070640Z 15002KT 02/M00 A3033 RMK A01 T00201004  RH  085%=      5-min Rain = 0
KAMH 070645Z 15003KT 02/M00 A3032 RMK A01 T00211003  RH  085%=      5-min Rain = 0
KAMH 070650Z 16004KT 02/M00 A3032 RMK A01 T00201003  RH  085%=      5-min Rain = 0
KAMH 070655Z 18005KT 02/M01 A3032 RMK A01 T00181006  RH  085%=      5-min Rain = 0
KAMH 070700Z 18006KT 02/M01 A3032 RMK A01 T00161006  RH  086%=      5-min Rain = 0
KAMH 070705Z 17006KT 02/M01 A3032 RMK A01 T00171006  RH  086%=      5-min Rain = 0
KAMH 070710Z 18006KT 02/M01 A3032 RMK A01 T00161006  RH  087%=      5-min Rain = 0
KAMH 070715Z 18006KT 02/M01 A3031 RMK A01 T00171005  RH  087%=      5-min Rain = 0
KAMH 070720Z 18006KT 02/M01 A3031 RMK A01 T00171005  RH  086%=      5-min Rain = 0
KAMH 070725Z 17006KT 02/M01 A3031 RMK A01 T00161007  RH  086%=      5-min Rain = 0
KAMH 070730Z 18005KT 01/M01 A3031 RMK A01 T00141008  RH  086%=      5-min Rain = 0
KAMH 070735Z 18005KT 01/M01 A3031 RMK A01 T00121009  RH  087%=      5-min Rain = 0
KAMH 070740Z 18004KT 01/M01 A3031 RMK A01 T00101011  RH  087%=      5-min Rain = 0
KAMH 070745Z 19005KT 01/M01 A303 RMK A01 T00101009  RH  088%=      5-min Rain = 0
KAMH 070750Z 19006KT 01/M01 A303 RMK A01 T00131006  RH  088%=      5-min Rain = 0
KAMH 070755Z 18006KT 02/M00 A303 RMK A01 T00171004  RH  087%=      5-min Rain = 0
KAMH 070800Z 17004KT 01/M01 A303 RMK A01 T00131011  RH  085%=      5-min Rain = 0
KAMH 070805Z 17004KT 01/M02 A303 RMK A01 T00061015  RH  086%=      5-min Rain = 0
KAMH 070810Z 18005KT 01/M01 A303 RMK A01 T00051014  RH  088%=      5-min Rain = 0
KAMH 070815Z 18005KT 01/M01 A303 RMK A01 T00071010  RH  089%=      5-min Rain = 0
KAMH 070820Z 18005KT 01/M01 A303 RMK A01 T00051013  RH  088%=      5-min Rain = 0
KAMH 070825Z 18005KT 01/M01 A303 RMK A01 T00051013  RH  089%=      5-min Rain = 0
KAMH 070830Z 18005KT 01/M01 A303 RMK A01 T00071010  RH  089%=      5-min Rain = 0
KAMH 070835Z 19006KT 01/M01 A303 RMK A01 T00101007  RH  089%=      5-min Rain = 0
KAMH 070840Z 19007KT 01/M01 A303 RMK A01 T00131006  RH  088%=      5-min Rain = 0
KAMH 070845Z 19008KT 02/M01 A303 RMK A01 T00171005  RH  087%=      5-min Rain = 0
KAMH 070850Z 19008KT 02/M01 A303 RMK A01 T00191005  RH  085%=      5-min Rain = 0
KAMH 070855Z 19007KT 02/M01 A303 RMK A01 T00191005  RH  085%=      5-min Rain = 0
KAMH 070900Z 19007KT 02/M01 A303 RMK A01 T00201005  RH  085%=      5-min Rain = 0
KAMH 070905Z 19007KT 02/M00 A303 RMK A01 T00201004  RH  085%=      5-min Rain = 0
KAMH 070910Z 19007KT 02/M00 A303 RMK A01 T00221003  RH  085%=      5-min Rain = 0
KAMH 070915Z 18007KT 02/M01 A303 RMK A01 T00201005  RH  085%=      5-min Rain = 0
KAMH 070920Z 18006KT 02/M01 A303 RMK A01 T00151008  RH  085%=      5-min Rain = 0
KAMH 070925Z 19006KT 01/M01 A303 RMK A01 T00131008  RH  087%=      5-min Rain = 0
KAMH 070930Z 19006KT 01/M01 A303 RMK A01 T00141005  RH  088%=      5-min Rain = 0
KAMH 070935Z 18006KT 02/M00 A3029 RMK A01 T00151004  RH  088%=      5-min Rain = 0
KAMH 070940Z 17006KT 01/M01 A3029 RMK A01 T00141006  RH  087%=      5-min Rain = 0
KAMH 070945Z 19006KT 01/M01 A3029 RMK A01 T00131006  RH  088%=      5-min Rain = 0
KAMH 070950Z 19006KT 02/M00 A3029 RMK A01 T00151003  RH  089%=      5-min Rain = 0
KAMH 070955Z 19006KT 02/M00 A3029 RMK A01 T00151004  RH  088%=      5-min Rain = 0
KAMH 071000Z 19007KT 01/M01 A3029 RMK A01 T00141005  RH  088%=      5-min Rain = 0
KAMH 071005Z 20008KT 02/00 A3028 RMK A01 T00190000  RH  088%=      5-min Rain = 0
KAMH 071010Z 20009KT 02/00 A3028 RMK A01 T00230001  RH  086%=      5-min Rain = 0
KAMH 071015Z 20010KT 03/00 A3028 RMK A01 T00270002  RH  085%=      5-min Rain = 0
KAMH 071020Z 20009KT 03/00 A3028 RMK A01 T00300002  RH  083%=      5-min Rain = 0
KAMH 071025Z 20009KT 03/00 A3028 RMK A01 T00300002  RH  083%=      5-min Rain = 0
KAMH 071030Z 20008KT 03/00 A3028 RMK A01 T00290001  RH  083%=      5-min Rain = 0
KAMH 071035Z 20008KT 03/00 A3027 RMK A01 T002700-0  RH  084%=      5-min Rain = 0
KAMH 071040Z 20007KT 03/M00 A3027 RMK A01 T00251001  RH  084%=      5-min Rain = 0
KAMH 071045Z 20007KT 03/M00 A3027 RMK A01 T00251001  RH  084%=      5-min Rain = 0
KAMH 071050Z 20007KT 02/M00 A3027 RMK A01 T00231001  RH  085%=      5-min Rain = 0
KAMH 071055Z 21007KT 02/M00 A3027 RMK A01 T00221002  RH  085%=      5-min Rain = 0
KAMH 071100Z 21006KT 02/M00 A3027 RMK A01 T00211003  RH  085%=      5-min Rain = 0
KAMH 071105Z 20005KT 02/M00 A3027 RMK A01 T00201003  RH  086%=      5-min Rain = 0
KAMH 071110Z 19005KT 02/M00 A3027 RMK A01 T00191004  RH  086%=      5-min Rain = 0
KAMH 071115Z 19005KT 02/M01 A3026 RMK A01 T00161006  RH  086%=      5-min Rain = 0
KAMH 071120Z 19005KT 01/M01 A3026 RMK A01 T00131007  RH  087%=      5-min Rain = 0
KAMH 071125Z 18005KT 01/M01 A3026 RMK A01 T00081011  RH  088%=      5-min Rain = 0
KAMH 071130Z 19005KT 01/M01 A3026 RMK A01 T00051012  RH  089%=      5-min Rain = 0
KAMH 071135Z 19005KT 00/M01 A3026 RMK A01 T00031013  RH  090%=      5-min Rain = 0
KAMH 071140Z 20006KT 01/M01 A3026 RMK A01 T00051009  RH  091%=      5-min Rain = 0
KAMH 071145Z 21006KT 01/M01 A3026 RMK A01 T00101005  RH  091%=      5-min Rain = 0
KAMH 071150Z 21006KT 01/M01 A3026 RMK A01 T00111005  RH  090%=      5-min Rain = 0
KAMH 071155Z 21006KT 01/M01 A3026 RMK A01 T00121005  RH  089%=      5-min Rain = 0
KAMH 071200Z 20007KT 01/M01 A3026 RMK A01 T00131005  RH  089%=      5-min Rain = 0
KAMH 071205Z 20007KT 01/M01 A3026 RMK A01 T00141005  RH  088%=      5-min Rain = 0
KAMH 071210Z 20007KT 01/M01 A3026 RMK A01 T00131006  RH  088%=      5-min Rain = 0
KAMH 071215Z 20007KT 01/M01 A3025 RMK A01 T00131006  RH  088%=      5-min Rain = 0
KAMH 071220Z 20007KT 01/M01 A3025 RMK A01 T00121007  RH  088%=      5-min Rain = 0
KAMH 071225Z 20006KT 01/M01 A3025 RMK A01 T00081010  RH  088%=      5-min Rain = 0
KAMH 071230Z 19006KT 01/M01 A3025 RMK A01 T00061010  RH  089%=      5-min Rain = 0
KAMH 071235Z 19006KT 00/M02 A3025 RMK A01 T00011015  RH  090%=      5-min Rain = 0
KAMH 071240Z 19006KT M00/M02 A3025 RMK A01 T10021016  RH  091%=      5-min Rain = 0
KAMH 071245Z 17005KT M00/M02 A3025 RMK A01 T10031017  RH  092%=      5-min Rain = 0
KAMH 071250Z 17005KT M01/M02 A3025 RMK A01 T10071021  RH  092%=      5-min Rain = 0
KAMH 071255Z 18006KT M01/M02 A3025 RMK A01 T10071019  RH  092%=      5-min Rain = 0
KAMH 071300Z 18006KT M00/M02 A3025 RMK A01 T10041015  RH  093%=      5-min Rain = 0
KAMH 071305Z 18005KT M00/M02 A3025 RMK A01 T10041015  RH  093%=      5-min Rain = 0
KAMH 071310Z 18005KT M01/M02 A3025 RMK A01 T10051016  RH  093%=      5-min Rain = 0
KAMH 071315Z 17005KT M01/M02 A3025 RMK A01 T10051016  RH  093%=      5-min Rain = 0
KAMH 071320Z 18006KT M01/M02 A3026 RMK A01 T10051015  RH  093%=      5-min Rain = 0
KAMH 071325Z 19006KT M00/M01 A3026 RMK A01 T10031013  RH  094%=      5-min Rain = 0
KAMH 071330Z 19006KT 00/M01 A3026 RMK A01 T00011008  RH  094%=      5-min Rain = 0
KAMH 071335Z 19006KT 00/M01 A3026 RMK A01 T00041007  RH  093%=      5-min Rain = 0
KAMH 071340Z 19007KT 01/M01 A3026 RMK A01 T00061006  RH  093%=      5-min Rain = 0
KAMH 071345Z 19007KT 01/M01 A3026 RMK A01 T00081005  RH  092%=      5-min Rain = 0
KAMH 071350Z 19007KT 01/M01 A3027 RMK A01 T00091006  RH  091%=      5-min Rain = 0
KAMH 071355Z 19008KT 01/M01 A3027 RMK A01 T00081007  RH  090%=      5-min Rain = 0
KAMH 071400Z 19008KT 01/M01 A3026 RMK A01 T00091007  RH  090%=      5-min Rain = 0
KAMH 071405Z 19008KT 01/M01 A3026 RMK A01 T00091006  RH  090%=      5-min Rain = 0
KAMH 071410Z 19008KT 01/M01 A3026 RMK A01 T00091007  RH  090%=      5-min Rain = 0
KAMH 071415Z 18007KT 01/M01 A3026 RMK A01 T00081008  RH  090%=      5-min Rain = 0
KAMH 071420Z 18007KT 01/M01 A3026 RMK A01 T00071009  RH  090%=      5-min Rain = 0
KAMH 071425Z 18007KT 01/M01 A3026 RMK A01 T00081007  RH  091%=      5-min Rain = 0
KAMH 071430Z 18007KT 01/M00 A3026 RMK A01 T00111004  RH  090%=      5-min Rain = 0
KAMH 071435Z 18006KT 02/00 A3026 RMK A01 T00170000  RH  090%=      5-min Rain = 0
KAMH 071440Z 19007KT 02/00 A3026 RMK A01 T00230004  RH  088%=      5-min Rain = 0
KAMH 071445Z 18007KT 03/00 A3026 RMK A01 T00250002  RH  086%=      5-min Rain = 0
KAMH 071450Z 18007KT 03/00 A3026 RMK A01 T00260003  RH  086%=      5-min Rain = 0
KAMH 071455Z 18007KT 03/01 A3026 RMK A01 T00280005  RH  086%=      5-min Rain = 0
KAMH 071500Z 18007KT 03/01 A3026 RMK A01 T00320008  RH  086%=      5-min Rain = 0
KAMH 071505Z 18007KT 04/01 A3026 RMK A01 T00360010  RH  085%=      5-min Rain = 0
KAMH 071510Z 18007KT 04/01 A3026 RMK A01 T00400013  RH  084%=      5-min Rain = 0
KAMH 071515Z 18008KT 05/02 A3026 RMK A01 T00450015  RH  082%=      5-min Rain = 0
KAMH 071520Z 19008KT 05/02 A3026 RMK A01 T00510018  RH  080%=      5-min Rain = 0
KAMH 071525Z 19009KT 05/01 A3026 RMK A01 T00500012  RH  077%=      5-min Rain = 0
KAMH 071530Z 19009KT 05/01 A3026 RMK A01 T00510014  RH  078%=      5-min Rain = 0
KAMH 071535Z 19009KT 05/02 A3026 RMK A01 T00530015  RH  078%=      5-min Rain = 0
KAMH 071540Z 19009KT 06/02 A3026 RMK A01 T00590018  RH  076%=      5-min Rain = 0
KAMH 071545Z 19009KT 06/02 A3026 RMK A01 T00640020  RH  075%=      5-min Rain = 0
KAMH 071550Z 19009KT 07/02 A3026 RMK A01 T00670020  RH  073%=      5-min Rain = 0
KAMH 071555Z 19008KT 07/02 A3026 RMK A01 T00710021  RH  072%=      5-min Rain = 0
KAMH 071600Z 19010KT 07/02 A3026 RMK A01 T00710018  RH  070%=      5-min Rain = 0
KAMH 071605Z 19009KT 07/02 A3026 RMK A01 T00730019  RH  069%=      5-min Rain = 0
KAMH 071610Z 19010KT 08/02 A3026 RMK A01 T00750020  RH  069%=      5-min Rain = 0
KAMH 071615Z 20009KT 08/02 A3026 RMK A01 T00800022  RH  068%=      5-min Rain = 0
KAMH 071620Z 19010KT 09/02 A3026 RMK A01 T00850024  RH  066%=      5-min Rain = 0
KAMH 071625Z 19011G16KT 09/02 A3026 RMK A01 T00880024  RH  065%=      5-min Rain = 0
KAMH 071630Z 19012KT 09/03 A3025 RMK A01 T00940025  RH  063%=      5-min Rain = 0
KAMH 071635Z 20012KT 10/02 A3025 RMK A01 T00960023  RH  061%=      5-min Rain = 0
KAMH 071640Z 20013G18KT 10/02 A3025 RMK A01 T00990020  RH  059%=      5-min Rain = 0
KAMH 071645Z 20014G19KT 10/02 A3025 RMK A01 T01010019  RH  057%=      5-min Rain = 0
KAMH 071650Z 20014G19KT 11/02 A3025 RMK A01 T01070018  RH  055%=      5-min Rain = 0
KAMH 071655Z 20014G20KT 11/02 A3025 RMK A01 T01130017  RH  052%=      5-min Rain = 0
KAMH 071700Z 19015KT 12/02 A3025 RMK A01 T01150016  RH  051%=      5-min Rain = 0
KAMH 071705Z 20017KT 11/01 A3024 RMK A01 T01140014  RH  051%=      5-min Rain = 0
KAMH 071710Z 20016KT 12/02 A3024 RMK A01 T01180016  RH  050%=      5-min Rain = 0
KAMH 071715Z 20015G21KT 12/02 A3024 RMK A01 T01220016  RH  049%=      5-min Rain = 0
KAMH 071720Z 19017KT 13/01 A3024 RMK A01 T01250014  RH  047%=      5-min Rain = 0
KAMH 071725Z 20016G21KT 13/01 A3024 RMK A01 T01260013  RH  047%=      5-min Rain = 0
KAMH 071730Z 20016G21KT 13/02 A3024 RMK A01 T01290016  RH  047%=      5-min Rain = 0
KAMH 071735Z 21016KT 13/02 A3024 RMK A01 T01300015  RH  046%=      5-min Rain = 0
KAMH 071740Z 20015KT 13/02 A3024 RMK A01 T01330017  RH  046%=      5-min Rain = 0
KAMH 071745Z 20015G20KT 14/02 A3023 RMK A01 T01350018  RH  046%=      5-min Rain = 0
KAMH 071750Z 20014G19KT 14/02 A3023 RMK A01 T01350019  RH  046%=      5-min Rain = 0
KAMH 071755Z 20015KT 14/02 A3022 RMK A01 T01380020  RH  045%=      5-min Rain = 0
KAMH 071800Z 20014G19KT 14/02 A3022 RMK A01 T01370020  RH  046%=      5-min Rain = 0
KAMH 071805Z 20013KT 14/02 A3021 RMK A01 T01420021  RH  044%=      5-min Rain = 0
KAMH 071810Z 21014KT 15/02 A3021 RMK A01 T01460019  RH  043%=      5-min Rain = 0
KAMH 071815Z 20013KT 15/02 A302 RMK A01 T01460018  RH  043%=      5-min Rain = 0
KAMH 071820Z 20015KT 15/02 A302 RMK A01 T01470018  RH  042%=      5-min Rain = 0
KAMH 071825Z 20014G19KT 15/02 A3019 RMK A01 T01490018  RH  042%=      5-min Rain = 0
KAMH 071830Z 20016KT 15/02 A3019 RMK A01 T01490016  RH  041%=      5-min Rain = 0
KAMH 071835Z 20016G21KT 15/02 A3018 RMK A01 T01500016  RH  041%=      5-min Rain = 0
KAMH 071840Z 20015G20KT 15/02 A3018 RMK A01 T01520016  RH  040%=      5-min Rain = 0
KAMH 071845Z 20015KT 15/02 A3018 RMK A01 T01530017  RH  040%=      5-min Rain = 0
KAMH 071850Z 21015G20KT 16/02 A3017 RMK A01 T01550017  RH  040%=      5-min Rain = 0
KAMH 071855Z 20016KT 16/02 A3017 RMK A01 T01550017  RH  040%=      5-min Rain = 0
KAMH 071900Z 20014KT 16/02 A3016 RMK A01 T01580018  RH  039%=      5-min Rain = 0
KAMH 071905Z 20015G20KT 16/02 A3016 RMK A01 T01600017  RH  039%=      5-min Rain = 0
KAMH 071910Z 20014G20KT 16/02 A3015 RMK A01 T01590016  RH  039%=      5-min Rain = 0
KAMH 071915Z 20014G20KT 16/02 A3015 RMK A01 T01620017  RH  038%=      5-min Rain = 0
KAMH 071920Z 19015KT 16/02 A3015 RMK A01 T01640017  RH  038%=      5-min Rain = 0
KAMH 071925Z 20013G21KT 16/02 A3015 RMK A01 T01640017  RH  038%=      5-min Rain = 0
KAMH 071930Z 20013G19KT 17/02 A3015 RMK A01 T01660018  RH  037%=      5-min Rain = 0
KAMH 071935Z 19014G19KT 17/02 A3015 RMK A01 T01650018  RH  038%=      5-min Rain = 0
KAMH 071940Z 19014KT 17/02 A3014 RMK A01 T01690021  RH  037%=      5-min Rain = 0
KAMH 071945Z 20014G19KT 17/02 A3014 RMK A01 T01690020  RH  037%=      5-min Rain = 0
KAMH 071950Z 20015KT 17/02 A3013 RMK A01 T01660021  RH  038%=      5-min Rain = 0
KAMH 071955Z 20015KT 17/02 A3013 RMK A01 T01650022  RH  039%=      5-min Rain = 0
KAMH 072000Z 19014G19KT 17/02 A3013 RMK A01 T01680023  RH  038%=      5-min Rain = 0
KAMH 072005Z 20015G21KT 17/02 A3012 RMK A01 T01680022  RH  038%=      5-min Rain = 0
KAMH 072010Z 20012G19KT 17/03 A3012 RMK A01 T01730025  RH  038%=      5-min Rain = 0
KAMH 072015Z 20014G19KT 17/02 A3011 RMK A01 T01730023  RH  037%=      5-min Rain = 0
KAMH 072020Z 19014G19KT 17/02 A3011 RMK A01 T01730023  RH  037%=      5-min Rain = 0
KAMH 072025Z 20012G17KT 18/02 A3011 RMK A01 T01780024  RH  036%=      5-min Rain = 0
KAMH 072030Z 19015G20KT 18/02 A3011 RMK A01 T01780023  RH  036%=      5-min Rain = 0
KAMH 072035Z 19015G22KT 18/02 A3011 RMK A01 T01750022  RH  036%=      5-min Rain = 0
KAMH 072040Z 20015G20KT 18/02 A301 RMK A01 T01750022  RH  036%=      5-min Rain = 0
KAMH 072045Z 19013KT 18/02 A301 RMK A01 T01760021  RH  036%=      5-min Rain = 0
KAMH 072050Z 19016G21KT 18/02 A301 RMK A01 T01750020  RH  036%=      5-min Rain = 0
KAMH 072055Z 19014G19KT 18/02 A301 RMK A01 T01770021  RH  036%=      5-min Rain = 0
KAMH 072100Z 20015KT 18/02 A301 RMK A01 T01760019  RH  035%=      5-min Rain = 0
KAMH 072105Z 19016G23KT 18/02 A301 RMK A01 T01750019  RH  036%=      5-min Rain = 0
KAMH 072110Z 20016KT 18/02 A301 RMK A01 T01750019  RH  036%=      5-min Rain = 0
KAMH 072115Z 19016G21KT 18/02 A3009 RMK A01 T01750019  RH  036%=      5-min Rain = 0
KAMH 072120Z 19014G20KT 18/02 A3009 RMK A01 T01760019  RH  035%=      5-min Rain = 0
KAMH 072125Z 20014G21KT 18/02 A3009 RMK A01 T01770018  RH  035%=      5-min Rain = 0
KAMH 072130Z 19014G21KT 18/02 A3009 RMK A01 T01790020  RH  035%=      5-min Rain = 0
KAMH 072135Z 19015KT 18/02 A3009 RMK A01 T01760019  RH  035%=      5-min Rain = 0
KAMH 072140Z 19015KT 18/02 A3009 RMK A01 T01770019  RH  035%=      5-min Rain = 0
KAMH 072145Z 20015KT 18/02 A3009 RMK A01 T01770020  RH  035%=      5-min Rain = 0
KAMH 072150Z 20015G22KT 18/02 A3009 RMK A01 T01790017  RH  034%=      5-min Rain = 0
KAMH 072155Z 20013G20KT 18/02 A3009 RMK A01 T01840018  RH  033%=      5-min Rain = 0
KAMH 072200Z 20016G21KT 18/02 A3008 RMK A01 T01820015  RH  033%=      5-min Rain = 0
KAMH 072205Z 20015KT 18/02 A3008 RMK A01 T01800015  RH  034%=      5-min Rain = 0
KAMH 072210Z 20014G19KT 18/02 A3008 RMK A01 T01800017  RH  034%=      5-min Rain = 0
KAMH 072215Z 20016KT 18/02 A3007 RMK A01 T01780016  RH  034%=      5-min Rain = 0
KAMH 072220Z 20015KT 18/02 A3007 RMK A01 T01780016  RH  034%=      5-min Rain = 0
KAMH 072225Z 21014KT 18/01 A3007 RMK A01 T01770014  RH  034%=      5-min Rain = 0
KAMH 072230Z 20014G20KT 18/01 A3007 RMK A01 T01770014  RH  034%=      5-min Rain = 0
KAMH 072235Z 20014G19KT 18/02 A3007 RMK A01 T01760016  RH  035%=      5-min Rain = 0
KAMH 072240Z 20014G20KT 17/02 A3007 RMK A01 T01740017  RH  035%=      5-min Rain = 0
KAMH 072245Z 19013G18KT 17/02 A3006 RMK A01 T01710017  RH  036%=      5-min Rain = 0
KAMH 072250Z 19012KT 17/02 A3006 RMK A01 T01700018  RH  036%=      5-min Rain = 0
KAMH 072255Z 19012KT 17/02 A3006 RMK A01 T01670018  RH  037%=      5-min Rain = 0
KAMH 072300Z 19013KT 16/02 A3006 RMK A01 T01630018  RH  038%=      5-min Rain = 0
KAMH 072305Z 19012KT 16/02 A3006 RMK A01 T01620019  RH  038%=      5-min Rain = 0
KAMH 072310Z 19013KT 16/02 A3006 RMK A01 T01600019  RH  039%=      5-min Rain = 0
KAMH 072315Z 19013KT 16/02 A3006 RMK A01 T01580018  RH  039%=      5-min Rain = 0
KAMH 072320Z 19012G17KT 16/02 A3006 RMK A01 T01560018  RH  040%=      5-min Rain = 0
KAMH 072325Z 19011G16KT 15/02 A3005 RMK A01 T01530018  RH  041%=      5-min Rain = 0
KAMH 072330Z 19011KT 15/02 A3005 RMK A01 T01490018  RH  041%=      5-min Rain = 0
KAMH 072335Z 19011KT 15/02 A3005 RMK A01 T01470018  RH  042%=      5-min Rain = 0
KAMH 072340Z 19011KT 14/02 A3005 RMK A01 T01440018  RH  043%=      5-min Rain = 0
KAMH 072345Z 20012KT 14/02 A3005 RMK A01 T01420018  RH  044%=      5-min Rain = 0
KAMH 072350Z 19013KT 14/02 A3005 RMK A01 T01400017  RH  044%=      5-min Rain = 0
KAMH 072355Z 19012KT 14/02 A3004 RMK A01 T01370017  RH  045%=      5-min Rain = 0
KAMH 080000Z 19011KT 13/02 A3004 RMK A01 T01340017  RH  046%=      5-min Rain = 0
KAMH 080005Z 20012KT 13/02 A3004 RMK A01 T01320017  RH  046%=      5-min Rain = 0
KAMH 080010Z 20011KT 13/02 A3004 RMK A01 T01320017  RH  046%=      5-min Rain = 0
KAMH 080015Z 19011G16KT 13/02 A3004 RMK A01 T01290017  RH  047%=      5-min Rain = 0
KAMH 080020Z 19011G16KT 13/02 A3004 RMK A01 T01270018  RH  048%=      5-min Rain = 0
KAMH 080025Z 20012KT 12/02 A3004 RMK A01 T01240018  RH  049%=      5-min Rain = 0
KAMH 080030Z 19012KT 12/02 A3004 RMK A01 T01230019  RH  050%=      5-min Rain = 0
KAMH 080035Z 19013KT 12/02 A3004 RMK A01 T01230019  RH  050%=      5-min Rain = 0
KAMH 080040Z 19013KT 12/02 A3003 RMK A01 T01220020  RH  050%=      5-min Rain = 0
KAMH 080045Z 19012G18KT 12/02 A3004 RMK A01 T01210020  RH  051%=      5-min Rain = 0
KAMH 080050Z 20012KT 12/02 A3004 RMK A01 T01200020  RH  051%=      5-min Rain = 0
KAMH 080055Z 20012KT 12/02 A3004 RMK A01 T01180020  RH  052%=      5-min Rain = 0
KAMH 080100Z 20012G17KT 12/02 A3004 RMK A01 T01170020  RH  052%=      5-min Rain = 0
KAMH 080105Z 20011KT 12/02 A3004 RMK A01 T01180019  RH  052%=      5-min Rain = 0
KAMH 080110Z 20012KT 12/02 A3005 RMK A01 T01170019  RH  052%=      5-min Rain = 0
KAMH 080115Z 19012KT 12/02 A3005 RMK A01 T01160019  RH  052%=      5-min Rain = 0
KAMH 080120Z 19013KT 11/02 A3005 RMK A01 T01130018  RH  053%=      5-min Rain = 0
KAMH 080125Z 19012KT 11/02 A3004 RMK A01 T01120018  RH  053%=      5-min Rain = 0
KAMH 080130Z 19012KT 11/02 A3004 RMK A01 T01110018  RH  053%=      5-min Rain = 0
KAMH 080135Z 19011KT 11/02 A3004 RMK A01 T01090017  RH  054%=      5-min Rain = 0
KAMH 080140Z 19011KT 11/02 A3004 RMK A01 T01070017  RH  055%=      5-min Rain = 0
KAMH 080145Z 19011KT 11/02 A3004 RMK A01 T01080018  RH  055%=      5-min Rain = 0
KAMH 080150Z 20011KT 11/02 A3004 RMK A01 T01090019  RH  055%=      5-min Rain = 0
KAMH 080155Z 19010G15KT 11/02 A3004 RMK A01 T01080019  RH  055%=      5-min Rain = 0
KAMH 080200Z 19009KT 10/02 A3004 RMK A01 T01040018  RH  056%=      5-min Rain = 0
KAMH 080205Z 19008KT 10/02 A3004 RMK A01 T01000017  RH  057%=      5-min Rain = 0
KAMH 080210Z 18006KT 09/02 A3005 RMK A01 T00930015  RH  059%=      5-min Rain = 0
KAMH 080215Z 18007KT 09/01 A3005 RMK A01 T00860014  RH  062%=      5-min Rain = 0
KAMH 080220Z 18006KT 08/01 A3005 RMK A01 T00830014  RH  063%=      5-min Rain = 0
KAMH 080225Z 18005KT 08/01 A3005 RMK A01 T00790014  RH  064%=      5-min Rain = 0
KAMH 080230Z 18005KT 08/01 A3005 RMK A01 T00760014  RH  065%=      5-min Rain = 0
KAMH 080235Z 18004KT 07/01 A3005 RMK A01 T00740013  RH  066%=      5-min Rain = 0
KAMH 080240Z 19004KT 07/01 A3005 RMK A01 T00720013  RH  067%=      5-min Rain = 0
KAMH 080245Z 19004KT 07/01 A3005 RMK A01 T00720013  RH  067%=      5-min Rain = 0
KAMH 080250Z 20005KT 07/01 A3005 RMK A01 T00700012  RH  068%=      5-min Rain = 0
KAMH 080255Z 20006KT 07/01 A3004 RMK A01 T00710013  RH  067%=      5-min Rain = 0
KAMH 080300Z 20008KT 07/02 A3004 RMK A01 T00730016  RH  068%=      5-min Rain = 0
KAMH 080305Z 20009KT 08/02 A3004 RMK A01 T00830019  RH  065%=      5-min Rain = 0
KAMH 080310Z 20009KT 09/02 A3004 RMK A01 T00870018  RH  063%=      5-min Rain = 0
KAMH 080315Z 21010KT 09/02 A3004 RMK A01 T00900019  RH  062%=      5-min Rain = 0
KAMH 080320Z 20010KT 09/02 A3004 RMK A01 T00920018  RH  061%=      5-min Rain = 0
KAMH 080325Z 21010KT 09/02 A3004 RMK A01 T00900018  RH  062%=      5-min Rain = 0
KAMH 080330Z 21010KT 09/02 A3004 RMK A01 T00920019  RH  061%=      5-min Rain = 0
KAMH 080335Z 21011KT 09/02 A3004 RMK A01 T00920019  RH  061%=      5-min Rain = 0
KAMH 080340Z 22011KT 09/02 A3004 RMK A01 T00920019  RH  061%=      5-min Rain = 0
KAMH 080345Z 22010KT 09/02 A3004 RMK A01 T00900018  RH  062%=      5-min Rain = 0
KAMH 080350Z 22010KT 09/02 A3003 RMK A01 T00870018  RH  063%=      5-min Rain = 0
KAMH 080355Z 22010KT 09/02 A3003 RMK A01 T00860018  RH  063%=      5-min Rain = 0
KAMH 080400Z 22011KT 08/02 A3003 RMK A01 T00840018  RH  064%=      5-min Rain = 0
KAMH 080405Z 22011KT 08/02 A3003 RMK A01 T00840019  RH  064%=      5-min Rain = 0
KAMH 080410Z 22011KT 08/02 A3003 RMK A01 T00840019  RH  064%=      5-min Rain = 0
KAMH 080415Z 22010KT 08/02 A3003 RMK A01 T00840019  RH  064%=      5-min Rain = 0
KAMH 080420Z 22012KT 09/02 A3003 RMK A01 T00860020  RH  064%=      5-min Rain = 0
KAMH 080425Z 22012G17KT 09/02 A3002 RMK A01 T00910021  RH  063%=      5-min Rain = 0
KAMH 080430Z 22013G18KT 09/02 A3002 RMK A01 T00940022  RH  061%=      5-min Rain = 0
KAMH 080435Z 22012KT 09/02 A3002 RMK A01 T00930021  RH  062%=      5-min Rain = 0
KAMH 080440Z 22011KT 09/02 A3002 RMK A01 T00920021  RH  062%=      5-min Rain = 0
KAMH 080445Z 22011KT 09/02 A3002 RMK A01 T00910021  RH  062%=      5-min Rain = 0
KAMH 080450Z 22011KT 09/02 A3001 RMK A01 T00910021  RH  062%=      5-min Rain = 0
KAMH 080455Z 22011KT 09/02 A3001 RMK A01 T00900021  RH  063%=      5-min Rain = 0
KAMH 080500Z 22011KT 09/02 A3001 RMK A01 T00880021  RH  063%=      5-min Rain = 0
KAMH 080505Z 22011KT 09/02 A3001 RMK A01 T00870021  RH  064%=      5-min Rain = 0
KAMH 080510Z 22012KT 09/02 A3001 RMK A01 T00870021  RH  064%=      5-min Rain = 0
KAMH 080515Z 23013KT 09/02 A3001 RMK A01 T00900022  RH  063%=      5-min Rain = 0
KAMH 080520Z 23013KT 09/02 A3001 RMK A01 T00930023  RH  062%=      5-min Rain = 0
KAMH 080525Z 23012KT 09/02 A3001 RMK A01 T00930022  RH  062%=      5-min Rain = 0
KAMH 080530Z 23012KT 09/02 A3001 RMK A01 T00930023  RH  063%=      5-min Rain = 0
KAMH 080535Z 23012KT 09/02 A3001 RMK A01 T00930023  RH  063%=      5-min Rain = 0
KAMH 080540Z 23013KT 09/02 A3001 RMK A01 T00930023  RH  063%=      5-min Rain = 0
KAMH 080545Z 23013KT 10/02 A3001 RMK A01 T00960024  RH  062%=      5-min Rain = 0
KAMH 080550Z 24012KT 10/02 A3001 RMK A01 T00960024  RH  062%=      5-min Rain = 0
KAMH 080555Z 24011KT 10/02 A3001 RMK A01 T00960024  RH  062%=      5-min Rain = 0

Page generated in 0.0095 seconds.